sensor_id;sensor_type;location;lat;lon;timestamp;pressure;altitude;pressure_sealevel;temperature;humidity
23635;BME280;11994;51.038;16.974;2022-10-16T00:01:23;100102.95;;;14.65;88.99
23635;BME280;11994;51.038;16.974;2022-10-16T00:03:52;100105.11;;;14.65;89.05
23635;BME280;11994;51.038;16.974;2022-10-16T00:06:20;100108.28;;;14.63;89.06
23635;BME280;11994;51.038;16.974;2022-10-16T00:08:47;100108.28;;;14.63;89.20
23635;BME280;11994;51.038;16.974;2022-10-16T00:11:20;100106.42;;;14.65;89.24
23635;BME280;11994;51.038;16.974;2022-10-16T00:13:45;100107.75;;;14.65;89.21
23635;BME280;11994;51.038;16.974;2022-10-16T00:16:13;100109.47;;;14.66;89.41
23635;BME280;11994;51.038;16.974;2022-10-16T00:18:40;100100.64;;;14.67;89.58
23635;BME280;11994;51.038;16.974;2022-10-16T00:21:09;100101.09;;;14.67;89.22
23635;BME280;11994;51.038;16.974;2022-10-16T00:23:38;100097.83;;;14.60;89.10
23635;BME280;11994;51.038;16.974;2022-10-16T00:26:07;100094.80;;;14.59;89.18
23635;BME280;11994;51.038;16.974;2022-10-16T00:28:35;100094.41;;;14.58;89.25
23635;BME280;11994;51.038;16.974;2022-10-16T00:31:06;100098.37;;;14.58;89.33
23635;BME280;11994;51.038;16.974;2022-10-16T00:33:34;100099.16;;;14.60;89.38
23635;BME280;11994;51.038;16.974;2022-10-16T00:36:02;100088.01;;;14.54;89.23
23635;BME280;11994;51.038;16.974;2022-10-16T00:38:29;100098.91;;;14.56;89.36
23635;BME280;11994;51.038;16.974;2022-10-16T00:40:56;100098.31;;;14.60;89.49
23635;BME280;11994;51.038;16.974;2022-10-16T00:46:20;100094.41;;;14.58;89.28
23635;BME280;11994;51.038;16.974;2022-10-16T00:49:10;100100.73;;;14.54;89.29
23635;BME280;11994;51.038;16.974;2022-10-16T00:51:43;100104.10;;;14.48;89.18
23635;BME280;11994;51.038;16.974;2022-10-16T00:54:20;100101.77;;;14.40;89.25
23635;BME280;11994;51.038;16.974;2022-10-16T00:56:46;100102.61;;;14.41;89.49
23635;BME280;11994;51.038;16.974;2022-10-16T00:59:35;100104.02;;;14.39;89.45
23635;BME280;11994;51.038;16.974;2022-10-16T01:01:59;100109.73;;;14.39;89.56
23635;BME280;11994;51.038;16.974;2022-10-16T01:04:26;100113.36;;;14.36;89.46
23635;BME280;11994;51.038;16.974;2022-10-16T01:07:02;100103.84;;;14.32;89.46
23635;BME280;11994;51.038;16.974;2022-10-16T01:15:42;100105.06;;;14.24;89.73
23635;BME280;11994;51.038;16.974;2022-10-16T01:18:20;100108.23;;;14.22;89.80
23635;BME280;11994;51.038;16.974;2022-10-16T01:29:20;100101.11;;;14.12;90.07
23635;BME280;11994;51.038;16.974;2022-10-16T01:31:51;100102.83;;;14.13;90.28
23635;BME280;11994;51.038;16.974;2022-10-16T01:34:35;100102.23;;;14.17;90.34
23635;BME280;11994;51.038;16.974;2022-10-16T01:37:05;100100.45;;;14.19;90.26
23635;BME280;11994;51.038;16.974;2022-10-16T01:39:39;100103.94;;;14.19;90.09
23635;BME280;11994;51.038;16.974;2022-10-16T01:42:22;100095.59;;;14.18;89.97
23635;BME280;11994;51.038;16.974;2022-10-16T01:44:51;100096.62;;;14.14;90.04
23635;BME280;11994;51.038;16.974;2022-10-16T01:47:21;100093.64;;;14.12;90.17
23635;BME280;11994;51.038;16.974;2022-10-16T01:49:49;100102.09;;;14.10;90.24
23635;BME280;11994;51.038;16.974;2022-10-16T01:52:19;100106.00;;;14.11;90.24
23635;BME280;11994;51.038;16.974;2022-10-16T01:54:48;100095.94;;;14.09;90.17
23635;BME280;11994;51.038;16.974;2022-10-16T01:57:16;100095.59;;;14.07;90.15
23635;BME280;11994;51.038;16.974;2022-10-16T01:59:49;100096.47;;;14.07;90.32
23635;BME280;11994;51.038;16.974;2022-10-16T02:02:18;100102.09;;;14.10;90.46
23635;BME280;11994;51.038;16.974;2022-10-16T02:04:58;100110.80;;;14.12;90.39
23635;BME280;11994;51.038;16.974;2022-10-16T02:07:29;100108.63;;;14.11;90.40
23635;BME280;11994;51.038;16.974;2022-10-16T02:09:55;100109.03;;;14.12;90.39
23635;BME280;11994;51.038;16.974;2022-10-16T02:12:25;100111.13;;;14.14;90.37
23635;BME280;11994;51.038;16.974;2022-10-16T02:14:56;100111.31;;;14.21;90.60
23635;BME280;11994;51.038;16.974;2022-10-16T02:17:24;100109.70;;;14.29;90.71
23635;BME280;11994;51.038;16.974;2022-10-16T02:19:52;100116.48;;;14.36;90.51
23635;BME280;11994;51.038;16.974;2022-10-16T02:22:25;100114.48;;;14.41;90.57
23635;BME280;11994;51.038;16.974;2022-10-16T02:27:53;100134.46;;;14.48;90.13
23635;BME280;11994;51.038;16.974;2022-10-16T02:30:44;100133.44;;;14.40;89.67
23635;BME280;11994;51.038;16.974;2022-10-16T02:33:14;100142.20;;;14.31;89.77
23635;BME280;11994;51.038;16.974;2022-10-16T02:35:43;100135.75;;;14.26;89.81
23635;BME280;11994;51.038;16.974;2022-10-16T02:38:11;100133.83;;;14.20;89.90
23635;BME280;11994;51.038;16.974;2022-10-16T02:40:39;100128.58;;;14.18;90.14
23635;BME280;11994;51.038;16.974;2022-10-16T02:43:06;100125.98;;;14.17;90.09
23635;BME280;11994;51.038;16.974;2022-10-16T02:45:33;100140.45;;;14.18;90.28
23635;BME280;11994;51.038;16.974;2022-10-16T02:47:59;100140.78;;;14.22;90.45
23635;BME280;11994;51.038;16.974;2022-10-16T02:50:25;100138.14;;;14.22;90.47
23635;BME280;11994;51.038;16.974;2022-10-16T02:52:51;100139.45;;;14.22;90.45
23635;BME280;11994;51.038;16.974;2022-10-16T02:55:17;100139.91;;;14.22;90.47
23635;BME280;11994;51.038;16.974;2022-10-16T02:57:44;100132.52;;;14.20;90.58
23635;BME280;11994;51.038;16.974;2022-10-16T03:00:12;100130.22;;;14.22;90.76
23635;BME280;11994;51.038;16.974;2022-10-16T03:02:40;100140.64;;;14.25;90.98
23635;BME280;11994;51.038;16.974;2022-10-16T03:05:07;100138.73;;;14.29;90.91
23635;BME280;11994;51.038;16.974;2022-10-16T03:07:34;100138.34;;;14.28;90.77
23635;BME280;11994;51.038;16.974;2022-10-16T03:10:00;100145.08;;;14.25;90.84
23635;BME280;11994;51.038;16.974;2022-10-16T03:12:27;100151.53;;;14.28;91.02
23635;BME280;11994;51.038;16.974;2022-10-16T03:14:55;100159.16;;;14.35;91.19
23635;BME280;11994;51.038;16.974;2022-10-16T03:17:22;100157.89;;;14.45;91.30
23635;BME280;11994;51.038;16.974;2022-10-16T03:19:49;100159.94;;;14.49;91.15
23635;BME280;11994;51.038;16.974;2022-10-16T03:22:15;100158.14;;;14.49;91.15
23635;BME280;11994;51.038;16.974;2022-10-16T03:24:41;100160.78;;;14.49;90.90
23635;BME280;11994;51.038;16.974;2022-10-16T03:27:07;100162.69;;;14.46;90.88
23635;BME280;11994;51.038;16.974;2022-10-16T03:29:34;100154.71;;;14.47;91.13
23635;BME280;11994;51.038;16.974;2022-10-16T03:32:00;100155.50;;;14.49;91.24
23635;BME280;11994;51.038;16.974;2022-10-16T03:34:26;100162.05;;;14.51;91.26
23635;BME280;11994;51.038;16.974;2022-10-16T03:36:53;100172.55;;;14.52;91.39
23635;BME280;11994;51.038;16.974;2022-10-16T03:39:19;100168.88;;;14.56;91.42
23635;BME280;11994;51.038;16.974;2022-10-16T03:41:45;100170.45;;;14.60;91.35
23635;BME280;11994;51.038;16.974;2022-10-16T03:44:12;100169.52;;;14.61;91.32
23635;BME280;11994;51.038;16.974;2022-10-16T03:46:38;100177.79;;;14.64;91.46
23635;BME280;11994;51.038;16.974;2022-10-16T03:49:04;100175.63;;;14.63;91.42
23635;BME280;11994;51.038;16.974;2022-10-16T03:51:30;100175.97;;;14.66;91.48
23635;BME280;11994;51.038;16.974;2022-10-16T03:53:56;100175.48;;;14.66;91.32
23635;BME280;11994;51.038;16.974;2022-10-16T03:56:22;100176.36;;;14.67;91.33
23635;BME280;11994;51.038;16.974;2022-10-16T03:58:49;100174.98;;;14.68;91.44
23635;BME280;11994;51.038;16.974;2022-10-16T04:01:15;100177.62;;;14.68;91.37
23635;BME280;11994;51.038;16.974;2022-10-16T04:03:41;100173.27;;;14.67;91.44
23635;BME280;11994;51.038;16.974;2022-10-16T04:06:07;100173.13;;;14.70;91.47
23635;BME280;11994;51.038;16.974;2022-10-16T04:08:34;100177.38;;;14.74;91.38
23635;BME280;11994;51.038;16.974;2022-10-16T04:11:02;100182.13;;;14.76;91.45
23635;BME280;11994;51.038;16.974;2022-10-16T04:13:29;100192.05;;;14.81;91.35
23635;BME280;11994;51.038;16.974;2022-10-16T04:15:55;100197.22;;;14.84;91.29
23635;BME280;11994;51.038;16.974;2022-10-16T04:18:21;100196.41;;;14.82;91.03
23635;BME280;11994;51.038;16.974;2022-10-16T04:20:47;100196.02;;;14.81;90.92
23635;BME280;11994;51.038;16.974;2022-10-16T04:23:13;100194.69;;;14.81;90.77
23635;BME280;11994;51.038;16.974;2022-10-16T04:25:39;100200.95;;;14.79;90.39
23635;BME280;11994;51.038;16.974;2022-10-16T04:28:05;100191.23;;;14.69;90.42
23635;BME280;11994;51.038;16.974;2022-10-16T04:30:31;100194.17;;;14.62;90.57
23635;BME280;11994;51.038;16.974;2022-10-16T04:32:59;100198.27;;;14.59;90.62
23635;BME280;11994;51.038;16.974;2022-10-16T04:35:25;100193.20;;;14.53;90.69
23635;BME280;11994;51.038;16.974;2022-10-16T04:37:51;100189.77;;;14.51;90.72
23635;BME280;11994;51.038;16.974;2022-10-16T04:40:17;100200.38;;;14.49;90.92
23635;BME280;11994;51.038;16.974;2022-10-16T04:42:43;100198.61;;;14.50;91.00
23635;BME280;11994;51.038;16.974;2022-10-16T04:45:09;100203.02;;;14.49;91.06
23635;BME280;11994;51.038;16.974;2022-10-16T04:47:35;100210.16;;;14.47;90.97
23635;BME280;11994;51.038;16.974;2022-10-16T04:50:02;100216.76;;;14.47;91.15
23635;BME280;11994;51.038;16.974;2022-10-16T04:52:29;100206.87;;;14.52;91.06
23635;BME280;11994;51.038;16.974;2022-10-16T04:54:57;100208.59;;;14.53;91.05
23635;BME280;11994;51.038;16.974;2022-10-16T04:57:25;100206.87;;;14.52;90.91
23635;BME280;11994;51.038;16.974;2022-10-16T04:59:52;100203.89;;;14.50;90.82
23635;BME280;11994;51.038;16.974;2022-10-16T05:02:18;100193.53;;;14.45;90.73
23635;BME280;11994;51.038;16.974;2022-10-16T05:04:44;100198.80;;;14.45;91.02
23635;BME280;11994;51.038;16.974;2022-10-16T05:07:10;100208.44;;;14.46;91.04
23635;BME280;11994;51.038;16.974;2022-10-16T05:09:36;100216.22;;;14.49;91.01
23635;BME280;11994;51.038;16.974;2022-10-16T05:12:03;100221.94;;;14.50;90.98
23635;BME280;11994;51.038;16.974;2022-10-16T05:14:29;100232.55;;;14.49;90.88
23635;BME280;11994;51.038;16.974;2022-10-16T05:16:57;100226.05;;;14.46;90.96
23635;BME280;11994;51.038;16.974;2022-10-16T05:19:23;100223.94;;;14.44;91.09
23635;BME280;11994;51.038;16.974;2022-10-16T05:21:49;100228.34;;;14.43;91.03
23635;BME280;11994;51.038;16.974;2022-10-16T05:24:15;100226.13;;;14.44;90.97
23635;BME280;11994;51.038;16.974;2022-10-16T05:26:41;100216.70;;;14.37;90.71
23635;BME280;11994;51.038;16.974;2022-10-16T05:29:08;100214.83;;;14.29;90.80
23635;BME280;11994;51.038;16.974;2022-10-16T05:31:35;100220.69;;;14.26;90.98
23635;BME280;11994;51.038;16.974;2022-10-16T05:34:01;100222.11;;;14.23;91.02
23635;BME280;11994;51.038;16.974;2022-10-16T05:36:27;100223.95;;;14.21;91.17
23635;BME280;11994;51.038;16.974;2022-10-16T05:38:53;100217.42;;;14.18;91.34
23635;BME280;11994;51.038;16.974;2022-10-16T05:41:20;100231.10;;;14.17;91.51
23635;BME280;11994;51.038;16.974;2022-10-16T05:43:50;100238.52;;;14.19;91.77
23635;BME280;11994;51.038;16.974;2022-10-16T05:46:16;100232.31;;;14.20;91.82
23635;BME280;11994;51.038;16.974;2022-10-16T05:48:42;100227.44;;;14.21;91.90
23635;BME280;11994;51.038;16.974;2022-10-16T05:51:13;100231.34;;;14.23;92.01
23635;BME280;11994;51.038;16.974;2022-10-16T05:53:40;100231.69;;;14.25;92.24
23635;BME280;11994;51.038;16.974;2022-10-16T05:56:09;100237.56;;;14.33;92.45
23635;BME280;11994;51.038;16.974;2022-10-16T05:58:37;100235.08;;;14.40;92.52
23635;BME280;11994;51.038;16.974;2022-10-16T06:01:09;100235.58;;;14.50;92.61
23635;BME280;11994;51.038;16.974;2022-10-16T06:03:36;100241.02;;;14.57;92.62
23635;BME280;11994;51.038;16.974;2022-10-16T06:06:11;100252.55;;;14.66;92.71
23635;BME280;11994;51.038;16.974;2022-10-16T06:08:39;100241.85;;;14.69;92.31
23635;BME280;11994;51.038;16.974;2022-10-16T06:11:09;100245.47;;;14.66;92.29
23635;BME280;11994;51.038;16.974;2022-10-16T06:13:36;100249.52;;;14.86;92.85
23635;BME280;11994;51.038;16.974;2022-10-16T06:16:03;100249.52;;;14.86;92.85
23635;BME280;11994;51.038;16.974;2022-10-16T06:18:30;100255.98;;;14.89;92.40
23635;BME280;11994;51.038;16.974;2022-10-16T06:20:57;100261.17;;;14.92;92.25
23635;BME280;11994;51.038;16.974;2022-10-16T06:23:24;100258.39;;;14.95;92.29
23635;BME280;11994;51.038;16.974;2022-10-16T06:25:51;100262.58;;;15.01;92.42
23635;BME280;11994;51.038;16.974;2022-10-16T06:28:17;100264.23;;;15.03;92.36
23635;BME280;11994;51.038;16.974;2022-10-16T06:30:43;100265.42;;;15.06;92.45
23635;BME280;11994;51.038;16.974;2022-10-16T06:33:10;100269.13;;;15.12;92.49
23635;BME280;11994;51.038;16.974;2022-10-16T06:35:37;100273.44;;;15.15;92.48
23635;BME280;11994;51.038;16.974;2022-10-16T06:38:03;100276.76;;;15.20;92.52
23635;BME280;11994;51.038;16.974;2022-10-16T06:40:29;100278.31;;;15.25;92.67
23635;BME280;11994;51.038;16.974;2022-10-16T06:42:55;100282.08;;;15.30;92.77
23635;BME280;11994;51.038;16.974;2022-10-16T06:45:22;100289.73;;;15.37;92.86
23635;BME280;11994;51.038;16.974;2022-10-16T06:47:48;100299.57;;;15.44;92.93
23635;BME280;11994;51.038;16.974;2022-10-16T06:50:14;100304.04;;;15.53;92.98
23635;BME280;11994;51.038;16.974;2022-10-16T06:52:40;100309.07;;;15.59;92.99
23635;BME280;11994;51.038;16.974;2022-10-16T06:55:07;100311.45;;;15.65;92.99
23635;BME280;11994;51.038;16.974;2022-10-16T06:57:33;100311.31;;;15.68;92.85
23635;BME280;11994;51.038;16.974;2022-10-16T06:59:59;100323.10;;;15.71;92.77
23635;BME280;11994;51.038;16.974;2022-10-16T07:02:25;100325.60;;;15.74;92.70
23635;BME280;11994;51.038;16.974;2022-10-16T07:04:51;100326.81;;;15.77;92.74
23635;BME280;11994;51.038;16.974;2022-10-16T07:07:17;100324.50;;;15.80;92.79
23635;BME280;11994;51.038;16.974;2022-10-16T07:09:44;100317.28;;;15.83;92.79
23635;BME280;11994;51.038;16.974;2022-10-16T07:12:10;100321.53;;;15.87;92.91
23635;BME280;11994;51.038;16.974;2022-10-16T07:14:36;100328.27;;;15.94;92.79
23635;BME280;11994;51.038;16.974;2022-10-16T07:17:02;100328.13;;;15.97;92.74
23635;BME280;11994;51.038;16.974;2022-10-16T07:19:28;100342.41;;;16.03;92.64
23635;BME280;11994;51.038;16.974;2022-10-16T07:21:54;100331.70;;;16.06;92.71
23635;BME280;11994;51.038;16.974;2022-10-16T07:24:21;100327.14;;;16.10;92.71
23635;BME280;11994;51.038;16.974;2022-10-16T07:26:47;100323.05;;;16.13;92.75
23635;BME280;11994;51.038;16.974;2022-10-16T07:29:18;100331.23;;;16.17;92.71
23635;BME280;11994;51.038;16.974;2022-10-16T07:31:46;100330.12;;;16.22;92.69
23635;BME280;11994;51.038;16.974;2022-10-16T07:34:14;100334.20;;;16.29;92.66
23635;BME280;11994;51.038;16.974;2022-10-16T07:36:41;100339.23;;;16.35;92.64
23635;BME280;11994;51.038;16.974;2022-10-16T07:39:08;100339.53;;;16.39;92.59
23635;BME280;11994;51.038;16.974;2022-10-16T07:41:34;100341.09;;;16.43;92.57
23635;BME280;11994;51.038;16.974;2022-10-16T07:44:03;100341.36;;;16.47;92.40
23635;BME280;11994;51.038;16.974;2022-10-16T07:46:30;100339.36;;;16.52;92.35
23635;BME280;11994;51.038;16.974;2022-10-16T07:48:56;100344.32;;;16.60;92.25
23635;BME280;11994;51.038;16.974;2022-10-16T07:51:24;100338.34;;;16.65;92.27
23635;BME280;11994;51.038;16.974;2022-10-16T07:53:51;100336.80;;;16.69;92.19
23635;BME280;11994;51.038;16.974;2022-10-16T07:56:18;100337.39;;;16.76;92.16
23635;BME280;11994;51.038;16.974;2022-10-16T07:58:46;100342.86;;;16.81;92.03
23635;BME280;11994;51.038;16.974;2022-10-16T08:01:15;100337.14;;;16.90;92.23
23635;BME280;11994;51.038;16.974;2022-10-16T08:03:43;100339.34;;;16.99;92.09
23635;BME280;11994;51.038;16.974;2022-10-16T08:06:10;100340.80;;;17.06;91.96
23635;BME280;11994;51.038;16.974;2022-10-16T08:08:36;100344.38;;;17.14;91.68
23635;BME280;11994;51.038;16.974;2022-10-16T08:11:03;100347.23;;;17.19;91.54
23635;BME280;11994;51.038;16.974;2022-10-16T08:13:30;100343.34;;;17.26;91.52
23635;BME280;11994;51.038;16.974;2022-10-16T08:15:56;100351.06;;;17.31;91.22
23635;BME280;11994;51.038;16.974;2022-10-16T08:18:22;100349.89;;;17.38;91.12
23635;BME280;11994;51.038;16.974;2022-10-16T08:20:57;100349.59;;;17.44;90.98
23635;BME280;11994;51.038;16.974;2022-10-16T08:23:24;100354.59;;;17.50;90.71
23635;BME280;11994;51.038;16.974;2022-10-16T08:25:52;100360.93;;;17.56;90.48
23635;BME280;11994;51.038;16.974;2022-10-16T08:28:19;100357.17;;;17.60;90.18
23635;BME280;11994;51.038;16.974;2022-10-16T08:30:45;100356.96;;;17.64;89.96
23635;BME280;11994;51.038;16.974;2022-10-16T08:33:11;100360.25;;;17.69;89.93
23635;BME280;11994;51.038;16.974;2022-10-16T08:35:37;100358.23;;;17.74;89.76
23635;BME280;11994;51.038;16.974;2022-10-16T08:38:06;100360.16;;;17.79;89.76
23635;BME280;11994;51.038;16.974;2022-10-16T08:40:34;100370.57;;;17.84;89.40
23635;BME280;11994;51.038;16.974;2022-10-16T08:46:15;100381.52;;;17.95;89.30
23635;BME280;11994;51.038;16.974;2022-10-16T08:48:51;100382.42;;;18.02;89.33
23635;BME280;11994;51.038;16.974;2022-10-16T08:51:24;100386.41;;;18.11;89.22
23635;BME280;11994;51.038;16.974;2022-10-16T08:54:04;100384.31;;;18.17;88.93
23635;BME280;11994;51.038;16.974;2022-10-16T08:56:38;100383.54;;;18.24;89.00
23635;BME280;11994;51.038;16.974;2022-10-16T08:59:06;100388.99;;;18.29;88.63
23635;BME280;11994;51.038;16.974;2022-10-16T09:01:40;100400.28;;;18.34;88.48
23635;BME280;11994;51.038;16.974;2022-10-16T09:15:43;100392.81;;;18.66;87.26
23635;BME280;11994;51.038;16.974;2022-10-16T09:18:41;100392.17;;;18.70;87.08
23635;BME280;11994;51.038;16.974;2022-10-16T09:21:15;100400.66;;;18.76;87.02
23635;BME280;11994;51.038;16.974;2022-10-16T09:23:52;100401.13;;;18.84;86.94
23635;BME280;11994;51.038;16.974;2022-10-16T09:26:19;100403.69;;;18.94;86.77
23635;BME280;11994;51.038;16.974;2022-10-16T09:28:47;100406.09;;;18.99;86.80
23635;BME280;11994;51.038;16.974;2022-10-16T09:31:16;100395.19;;;19.03;86.55
23635;BME280;11994;51.038;16.974;2022-10-16T09:33:51;100401.12;;;19.08;86.30
23635;BME280;11994;51.038;16.974;2022-10-16T09:36:25;100403.45;;;19.14;86.41
23635;BME280;11994;51.038;16.974;2022-10-16T09:39:05;100407.74;;;19.17;86.34
23635;BME280;11994;51.038;16.974;2022-10-16T09:41:42;100408.39;;;19.13;86.00
23635;BME280;11994;51.038;16.974;2022-10-16T09:44:28;100407.44;;;19.14;85.88
23635;BME280;11994;51.038;16.974;2022-10-16T09:47:14;100405.00;;;19.18;85.88
23635;BME280;11994;51.038;16.974;2022-10-16T09:49:58;100404.85;;;19.21;85.55
23635;BME280;11994;51.038;16.974;2022-10-16T09:52:28;100393.41;;;19.28;85.72
23635;BME280;11994;51.038;16.974;2022-10-16T09:55:02;100401.70;;;19.30;85.53
23635;BME280;11994;51.038;16.974;2022-10-16T09:57:30;100396.75;;;19.31;85.35
23635;BME280;11994;51.038;16.974;2022-10-16T09:59:57;100398.84;;;19.33;85.39
23635;BME280;11994;51.038;16.974;2022-10-16T10:02:35;100400.02;;;19.36;85.46
23635;BME280;11994;51.038;16.974;2022-10-16T10:05:05;100396.63;;;19.41;85.33
23635;BME280;11994;51.038;16.974;2022-10-16T10:07:38;100405.91;;;19.50;85.68
23635;BME280;11994;51.038;16.974;2022-10-16T10:10:18;100396.76;;;19.62;85.76
23635;BME280;11994;51.038;16.974;2022-10-16T10:12:51;100397.84;;;19.74;85.49
23635;BME280;11994;51.038;16.974;2022-10-16T10:15:17;100399.14;;;19.89;84.77
23635;BME280;11994;51.038;16.974;2022-10-16T10:17:48;100400.45;;;20.05;84.70
23635;BME280;11994;51.038;16.974;2022-10-16T10:20:25;100402.30;;;20.11;84.40
23635;BME280;11994;51.038;16.974;2022-10-16T10:22:53;100394.44;;;20.17;84.05
23635;BME280;11994;51.038;16.974;2022-10-16T10:31:32;100400.59;;;20.54;84.06
23635;BME280;11994;51.038;16.974;2022-10-16T10:40:48;100398.61;;;20.78;82.86
23635;BME280;11994;51.038;16.974;2022-10-16T10:43:42;100397.86;;;20.76;82.26
23635;BME280;11994;51.038;16.974;2022-10-16T10:46:34;100399.73;;;20.81;82.28
23635;BME280;11994;51.038;16.974;2022-10-16T10:58:07;100381.08;;;21.09;80.82
23635;BME280;11994;51.038;16.974;2022-10-16T11:01:21;100393.48;;;21.17;80.41
23635;BME280;11994;51.038;16.974;2022-10-16T11:04:11;100396.72;;;21.22;79.81
23635;BME280;11994;51.038;16.974;2022-10-16T11:07:05;100402.51;;;21.29;79.51
23635;BME280;11994;51.038;16.974;2022-10-16T11:09:41;100396.11;;;21.31;79.18
23635;BME280;11994;51.038;16.974;2022-10-16T11:12:18;100391.93;;;21.34;79.22
23635;BME280;11994;51.038;16.974;2022-10-16T11:15:00;100398.58;;;21.41;78.07
23635;BME280;11994;51.038;16.974;2022-10-16T11:17:39;100396.00;;;21.40;76.71
23635;BME280;11994;51.038;16.974;2022-10-16T11:23:28;100393.19;;;21.22;75.84
23635;BME280;11994;51.038;16.974;2022-10-16T11:25:59;100390.25;;;21.12;75.89
23635;BME280;11994;51.038;16.974;2022-10-16T11:28:35;100389.22;;;21.08;75.69
23635;BME280;11994;51.038;16.974;2022-10-16T11:31:37;100389.30;;;21.06;76.01
23635;BME280;11994;51.038;16.974;2022-10-16T11:36:53;100388.12;;;21.24;75.86
23635;BME280;11994;51.038;16.974;2022-10-16T11:39:26;100387.42;;;21.35;76.26
23635;BME280;11994;51.038;16.974;2022-10-16T11:44:51;100378.12;;;21.54;74.59
23635;BME280;11994;51.038;16.974;2022-10-16T11:47:34;100385.34;;;21.66;75.29
23635;BME280;11994;51.038;16.974;2022-10-16T11:56:00;100378.50;;;21.69;75.17
23635;BME280;11994;51.038;16.974;2022-10-16T11:58:30;100382.87;;;21.63;74.72
23635;BME280;11994;51.038;16.974;2022-10-16T12:07:09;100374.06;;;21.49;73.87
23635;BME280;11994;51.038;16.974;2022-10-16T12:09:39;100380.48;;;21.39;74.08
23635;BME280;11994;51.038;16.974;2022-10-16T12:12:47;100398.89;;;21.37;73.53
23635;BME280;11994;51.038;16.974;2022-10-16T12:15:18;100399.66;;;21.32;74.41
23635;BME280;11994;51.038;16.974;2022-10-16T12:17:36;100416.36;;;21.28;74.59
23635;BME280;11994;51.038;16.974;2022-10-16T12:25:36;100426.74;;;21.12;73.62
23635;BME280;11994;51.038;16.974;2022-10-16T12:31:02;100433.16;;;20.88;73.46
23635;BME280;11994;51.038;16.974;2022-10-16T12:33:35;100441.67;;;20.79;73.79
23635;BME280;11994;51.038;16.974;2022-10-16T12:36:14;100446.42;;;20.74;74.54
23635;BME280;11994;51.038;16.974;2022-10-16T12:38:47;100429.17;;;20.59;75.08
23635;BME280;11994;51.038;16.974;2022-10-16T12:41:28;100429.17;;;20.59;75.08
23635;BME280;11994;51.038;16.974;2022-10-16T12:43:54;100444.05;;;20.70;75.05
23635;BME280;11994;51.038;16.974;2022-10-16T12:46:33;100454.26;;;20.70;75.20
23635;BME280;11994;51.038;16.974;2022-10-16T12:48:51;100432.88;;;20.56;75.12
23635;BME280;11994;51.038;16.974;2022-10-16T12:54:17;100427.84;;;20.59;75.31
23635;BME280;11994;51.038;16.974;2022-10-16T12:57:27;100445.59;;;20.74;75.23
23635;BME280;11994;51.038;16.974;2022-10-16T13:00:09;100453.67;;;20.72;75.39
23635;BME280;11994;51.038;16.974;2022-10-16T13:23:09;100461.17;;;20.95;76.05
23635;BME280;11994;51.038;16.974;2022-10-16T13:28:40;100445.67;;;20.79;76.27
23635;BME280;11994;51.038;16.974;2022-10-16T13:31:15;100467.14;;;20.85;76.16
23635;BME280;11994;51.038;16.974;2022-10-16T13:33:52;100458.27;;;20.84;76.20
23635;BME280;11994;51.038;16.974;2022-10-16T13:36:30;100463.84;;;20.88;76.19
23635;BME280;11994;51.038;16.974;2022-10-16T13:39:14;100472.68;;;20.89;76.10
23635;BME280;11994;51.038;16.974;2022-10-16T13:41:43;100465.22;;;20.87;76.06
23635;BME280;11994;51.038;16.974;2022-10-16T13:44:18;100469.60;;;20.88;76.08
23635;BME280;11994;51.038;16.974;2022-10-16T13:46:45;100469.17;;;20.88;76.09
23635;BME280;11994;51.038;16.974;2022-10-16T13:49:15;100469.55;;;20.89;76.04
23635;BME280;11994;51.038;16.974;2022-10-16T13:51:53;100472.22;;;20.89;75.93
23635;BME280;11994;51.038;16.974;2022-10-16T13:54:20;100475.72;;;20.90;75.96
23635;BME280;11994;51.038;16.974;2022-10-16T13:56:46;100480.36;;;20.86;75.65
23635;BME280;11994;51.038;16.974;2022-10-16T13:59:27;100472.36;;;20.86;75.84
23635;BME280;11994;51.038;16.974;2022-10-16T14:02:05;100475.34;;;20.89;75.54
23635;BME280;11994;51.038;16.974;2022-10-16T14:04:37;100475.34;;;20.89;75.54
23635;BME280;11994;51.038;16.974;2022-10-16T14:07:04;100479.27;;;20.90;75.79
23635;BME280;11994;51.038;16.974;2022-10-16T14:09:30;100485.36;;;20.92;75.80
23635;BME280;11994;51.038;16.974;2022-10-16T14:14:50;100496.06;;;20.99;75.61
23635;BME280;11994;51.038;16.974;2022-10-16T14:17:28;100495.19;;;20.99;75.62
23635;BME280;11994;51.038;16.974;2022-10-16T14:20:00;100502.33;;;20.98;75.58
23635;BME280;11994;51.038;16.974;2022-10-16T14:22:40;100501.11;;;20.97;75.68
23635;BME280;11994;51.038;16.974;2022-10-16T14:25:23;100481.11;;;20.81;75.47
23635;BME280;11994;51.038;16.974;2022-10-16T14:30:28;100506.07;;;20.96;75.75
23635;BME280;11994;51.038;16.974;2022-10-16T14:33:02;100490.89;;;20.89;75.68
23635;BME280;11994;51.038;16.974;2022-10-16T14:35:38;100496.61;;;20.97;75.57
23635;BME280;11994;51.038;16.974;2022-10-16T14:38:02;100507.41;;;20.96;75.50
23635;BME280;11994;51.038;16.974;2022-10-16T14:40:31;100504.73;;;20.96;75.57
23635;BME280;11994;51.038;16.974;2022-10-16T14:43:00;100507.11;;;20.93;75.31
23635;BME280;11994;51.038;16.974;2022-10-16T14:45:30;100507.66;;;20.91;75.11
23635;BME280;11994;51.038;16.974;2022-10-16T14:48:14;100507.45;;;20.87;75.26
23635;BME280;11994;51.038;16.974;2022-10-16T14:50:30;100508.00;;;20.85;75.33
23635;BME280;11994;51.038;16.974;2022-10-16T14:52:56;100488.64;;;20.68;75.65
23635;BME280;11994;51.038;16.974;2022-10-16T14:55:25;100488.64;;;20.68;75.65